createdAt,value
2017-07-12T00:00:38.502Z,1002.95
2017-07-12T00:01:39.766Z,1002.96
2017-07-12T00:02:41.011Z,1002.95
2017-07-12T00:03:42.274Z,1002.92
2017-07-12T00:04:43.506Z,1002.88
2017-07-12T00:05:44.769Z,1002.91
2017-07-12T00:06:46.004Z,1002.92
2017-07-12T00:07:47.264Z,1002.93
2017-07-12T00:08:48.526Z,1002.93
2017-07-12T00:09:49.776Z,1002.89
2017-07-12T00:10:51.036Z,1002.86
2017-07-12T00:11:52.413Z,1002.88
2017-07-12T00:12:53.676Z,1002.88
2017-07-12T00:13:54.953Z,1002.87
2017-07-12T00:14:56.172Z,1002.89
2017-07-12T00:15:57.417Z,1002.89
2017-07-12T00:16:58.768Z,1002.9
2017-07-12T00:18:00.222Z,1002.84
2017-07-12T00:19:01.499Z,1002.83
2017-07-12T00:20:02.759Z,1002.8
2017-07-12T00:21:04.027Z,1002.8
2017-07-12T00:22:05.268Z,1002.78
2017-07-12T00:23:06.511Z,1002.78
2017-07-12T00:24:07.793Z,1002.76
2017-07-12T00:25:09.017Z,1002.8
2017-07-12T00:26:10.256Z,1002.76
2017-07-12T00:27:11.537Z,1002.73
2017-07-12T00:28:12.784Z,1002.72
2017-07-12T00:29:14.098Z,1002.71
2017-07-12T00:30:15.322Z,1002.66
2017-07-12T00:31:16.603Z,1002.62
2017-07-12T00:32:17.832Z,1002.6
2017-07-12T00:33:19.113Z,1002.53
2017-07-12T00:34:20.404Z,1002.5
2017-07-12T00:35:21.726Z,1002.49
2017-07-12T00:36:22.976Z,1002.54
2017-07-12T00:37:24.229Z,1002.53
2017-07-12T00:38:25.484Z,1002.52
2017-07-12T00:39:26.807Z,1002.55
2017-07-12T00:40:28.103Z,1002.54
2017-07-12T00:41:29.350Z,1002.58
2017-07-12T00:42:30.618Z,1002.57
2017-07-12T00:43:31.873Z,1002.56
2017-07-12T00:44:33.114Z,1002.54
2017-07-12T00:45:34.403Z,1002.55
2017-07-12T00:46:35.644Z,1002.54
2017-07-12T00:47:36.891Z,1002.56
2017-07-12T00:48:38.141Z,1002.53
2017-07-12T00:49:39.564Z,1002.54
2017-07-12T00:50:40.799Z,1002.53
2017-07-12T00:51:42.035Z,1002.55
2017-07-12T00:52:43.285Z,1002.56
2017-07-12T00:53:44.625Z,1002.52
2017-07-12T00:54:45.880Z,1002.49
2017-07-12T00:55:47.122Z,1002.49
2017-07-12T00:56:48.369Z,1002.48
2017-07-12T00:57:49.610Z,1002.49
2017-07-12T00:58:50.981Z,1002.48
2017-07-12T00:59:52.226Z,1002.48
2017-07-12T01:00:53.555Z,1002.48
2017-07-12T01:01:54.782Z,1002.48
2017-07-12T01:02:56.031Z,1002.44
2017-07-12T01:03:57.314Z,1002.45
2017-07-12T01:04:58.567Z,1002.44
2017-07-12T01:05:59.855Z,1002.44
2017-07-12T01:07:01.091Z,1002.44
2017-07-12T01:08:02.332Z,1002.45
2017-07-12T01:09:03.652Z,1002.46
2017-07-12T01:10:04.907Z,1002.45
2017-07-12T01:11:06.185Z,1002.44
2017-07-12T01:12:07.424Z,1002.48
2017-07-12T01:13:08.684Z,1002.54
2017-07-12T01:14:10.105Z,1002.57
2017-07-12T01:15:11.335Z,1002.6
2017-07-12T01:16:12.590Z,1002.55
2017-07-12T01:17:13.859Z,1002.53
2017-07-12T01:18:15.092Z,1002.55
2017-07-12T01:19:16.401Z,1002.56
2017-07-12T01:20:17.653Z,1002.53
2017-07-12T01:21:18.898Z,1002.5
2017-07-12T01:22:20.147Z,1002.47
2017-07-12T01:23:21.388Z,1002.45
2017-07-12T01:24:22.686Z,1002.43
2017-07-12T01:25:23.955Z,1002.42
2017-07-12T01:26:25.204Z,1002.42
2017-07-12T01:27:26.486Z,1002.41
2017-07-12T01:28:27.707Z,1002.37
2017-07-12T01:29:29.100Z,1002.37
2017-07-12T01:30:30.391Z,1002.34
2017-07-12T01:31:31.666Z,1002.38
2017-07-12T01:32:32.893Z,1002.37
2017-07-12T01:33:34.146Z,1002.35
2017-07-12T01:34:35.397Z,1002.37
2017-07-12T01:35:36.649Z,1002.34
2017-07-12T01:36:37.931Z,1002.31
2017-07-12T01:37:39.201Z,1002.3
2017-07-12T01:38:40.435Z,1002.25
2017-07-12T01:39:41.687Z,1002.26
2017-07-12T01:40:42.945Z,1002.26
2017-07-12T01:41:44.186Z,1002.22
2017-07-12T01:42:45.459Z,1002.24
2017-07-12T01:43:46.691Z,1002.3
2017-07-12T01:44:48.074Z,1002.25
2017-07-12T01:45:49.309Z,1002.27
2017-07-12T01:46:50.643Z,1002.29
2017-07-12T01:47:51.902Z,1002.25
2017-07-12T01:48:53.141Z,1002.25
2017-07-12T01:49:54.478Z,1002.24
2017-07-12T01:50:55.723Z,1002.25
2017-07-12T01:51:56.994Z,1002.22
2017-07-12T01:52:58.244Z,1002.22
2017-07-12T01:53:59.487Z,1002.19
2017-07-12T01:55:00.810Z,1002.19
2017-07-12T01:56:02.072Z,1002.24
2017-07-12T01:57:03.326Z,1002.15
2017-07-12T01:58:04.567Z,1002.17
2017-07-12T01:59:05.812Z,1002.18
2017-07-12T02:00:07.351Z,1002.2
2017-07-12T02:01:08.644Z,1002.17
2017-07-12T02:02:09.941Z,1002.21
2017-07-12T02:03:11.180Z,1002.18
2017-07-12T02:04:12.457Z,1002.17
2017-07-12T02:05:13.716Z,1002.13
2017-07-12T02:06:14.963Z,1002.15
2017-07-12T02:07:16.249Z,1002.12
2017-07-12T02:08:17.509Z,1002.12
2017-07-12T02:09:18.760Z,1002.12
2017-07-12T02:10:20.021Z,1002.12
2017-07-12T02:11:21.282Z,1002.11
2017-07-12T02:12:22.516Z,1002.09
2017-07-12T02:13:23.800Z,1002.05
2017-07-12T02:14:25.042Z,1002.03
2017-07-12T02:15:26.340Z,1001.99
2017-07-12T02:16:27.610Z,1001.92
2017-07-12T02:17:28.828Z,1001.92
2017-07-12T02:18:30.076Z,1001.93
2017-07-12T02:19:31.329Z,1001.91
2017-07-12T02:20:32.630Z,1001.91
2017-07-12T02:21:33.999Z,1001.9
2017-07-12T02:22:35.232Z,1001.92
2017-07-12T02:23:36.483Z,1001.89
2017-07-12T02:24:37.733Z,1001.9
2017-07-12T02:25:38.980Z,1001.95
2017-07-12T02:26:40.298Z,1001.92
2017-07-12T02:27:41.551Z,1001.96
2017-07-12T02:28:42.816Z,1001.94
2017-07-12T02:29:44.082Z,1001.99
2017-07-12T02:30:45.316Z,1001.98
2017-07-12T02:31:46.589Z,1002.02
2017-07-12T02:32:47.934Z,1002.02
2017-07-12T02:33:49.179Z,1002.01
2017-07-12T02:34:50.442Z,1001.99
2017-07-12T02:35:51.691Z,1002.02
2017-07-12T02:36:53.084Z,1002.03
2017-07-12T02:37:54.322Z,1002.03
2017-07-12T02:38:55.594Z,1001.96
2017-07-12T02:39:56.856Z,1001.94
2017-07-12T02:40:58.100Z,1001.91
2017-07-12T02:41:59.358Z,1001.82
2017-07-12T02:43:00.736Z,1001.79
2017-07-12T02:44:01.991Z,1001.8
2017-07-12T02:45:03.250Z,1001.79
2017-07-12T02:46:04.502Z,1001.77
2017-07-12T02:47:05.753Z,1001.71
2017-07-12T02:48:07.003Z,1001.73
2017-07-12T02:49:08.325Z,1001.72
2017-07-12T02:50:09.591Z,1001.69
2017-07-12T02:51:10.910Z,1001.7
2017-07-12T02:52:12.170Z,1001.69
2017-07-12T02:53:13.427Z,1001.71
2017-07-12T02:54:14.670Z,1001.7
2017-07-12T02:55:15.969Z,1001.72
2017-07-12T02:56:17.214Z,1001.72
2017-07-12T02:57:18.463Z,1001.7
2017-07-12T02:58:19.814Z,1001.66
2017-07-12T02:59:21.055Z,1001.63
2017-07-12T03:00:22.310Z,1001.64
2017-07-12T03:01:23.530Z,1001.61
2017-07-12T03:02:24.845Z,1001.59
2017-07-12T03:03:26.288Z,1001.61
2017-07-12T03:04:27.536Z,1001.62
2017-07-12T03:05:28.786Z,1001.6
2017-07-12T03:06:30.059Z,1001.63
2017-07-12T03:07:31.288Z,1001.59
2017-07-12T03:08:32.569Z,1001.63
2017-07-12T03:09:33.835Z,1001.61
2017-07-12T03:10:35.081Z,1001.61
2017-07-12T03:11:36.337Z,1001.61
2017-07-12T03:12:37.564Z,1001.59
2017-07-12T03:13:38.923Z,1001.62
2017-07-12T03:14:40.160Z,1001.6
2017-07-12T03:15:41.410Z,1001.61
2017-07-12T03:16:42.647Z,1001.63
2017-07-12T03:17:43.886Z,1001.64
2017-07-12T03:18:45.159Z,1001.61
2017-07-12T03:19:46.476Z,1001.64
2017-07-12T03:20:47.749Z,1001.67
2017-07-12T03:21:48.976Z,1001.66
2017-07-12T03:22:50.285Z,1001.67
2017-07-12T03:23:51.528Z,1001.67
2017-07-12T03:24:52.783Z,1001.66
2017-07-12T03:25:54.042Z,1001.61
2017-07-12T03:26:55.299Z,1001.59
2017-07-12T03:27:56.540Z,1001.56
2017-07-12T03:28:57.819Z,1001.49
2017-07-12T03:29:59.072Z,1001.5
2017-07-12T03:31:00.312Z,1001.5
2017-07-12T03:32:01.581Z,1001.46
2017-07-12T03:33:02.881Z,1001.45
2017-07-12T03:34:04.134Z,1001.4
2017-07-12T03:35:05.449Z,1001.36
2017-07-12T03:36:06.696Z,1001.37
2017-07-12T03:37:07.944Z,1001.37
2017-07-12T03:38:09.196Z,1001.33
2017-07-12T03:39:10.455Z,1001.28
2017-07-12T03:40:11.708Z,1001.3
2017-07-12T03:41:12.950Z,1001.28
2017-07-12T03:42:14.195Z,1001.28
2017-07-12T03:43:15.435Z,1001.3
2017-07-12T03:44:16.772Z,1001.29
2017-07-12T03:45:17.992Z,1001.32
2017-07-12T03:46:19.260Z,1001.3
2017-07-12T03:47:20.514Z,1001.31
2017-07-12T03:48:21.799Z,1001.29
2017-07-12T03:49:23.024Z,1001.27
2017-07-12T03:50:24.263Z,1001.25
2017-07-12T03:51:25.516Z,1001.24
2017-07-12T03:52:26.758Z,1001.26
2017-07-12T03:53:28.012Z,1001.27
2017-07-12T03:54:29.293Z,1001.24
2017-07-12T03:55:30.536Z,1001.23
2017-07-12T03:56:31.777Z,1001.25
2017-07-12T03:57:33.032Z,1001.24
2017-07-12T03:58:34.323Z,1001.25
2017-07-12T03:59:35.600Z,1001.2
2017-07-12T04:00:36.849Z,1001.23
2017-07-12T04:01:38.092Z,1001.18
2017-07-12T04:02:39.349Z,1001.18
2017-07-12T04:03:40.726Z,1001.14
2017-07-12T04:04:41.959Z,1001.13
2017-07-12T04:05:43.232Z,1001.1
2017-07-12T04:06:44.520Z,1001.09
2017-07-12T04:07:45.756Z,1001.11
2017-07-12T04:08:47.003Z,1001.08
2017-07-12T04:09:48.240Z,1001.07
2017-07-12T04:10:49.524Z,1001.03
2017-07-12T04:11:50.747Z,1001
2017-07-12T04:12:52.119Z,1001
2017-07-12T04:13:53.360Z,1000.98
2017-07-12T04:14:54.661Z,1000.97
2017-07-12T04:15:55.921Z,1000.98
2017-07-12T04:16:57.301Z,1000.96
2017-07-12T04:17:58.546Z,1000.93
2017-07-12T04:18:59.786Z,1000.93
2017-07-12T04:20:01.035Z,1000.88
2017-07-12T04:21:02.274Z,1000.86
2017-07-12T04:22:03.539Z,1000.88
2017-07-12T04:23:04.788Z,1000.87
2017-07-12T04:24:06.193Z,1000.86
2017-07-12T04:25:07.437Z,1000.84
2017-07-12T04:26:08.688Z,1000.87
2017-07-12T04:27:09.940Z,1000.86
2017-07-12T04:28:11.195Z,1000.89
2017-07-12T04:29:12.486Z,1000.88
2017-07-12T04:30:13.735Z,1000.89
2017-07-12T04:31:15.005Z,1000.91
2017-07-12T04:32:16.239Z,1000.93
2017-07-12T04:33:17.473Z,1000.94
2017-07-12T04:34:18.797Z,1000.93
2017-07-12T04:35:20.073Z,1000.91
2017-07-12T04:36:21.321Z,1000.89
2017-07-12T04:37:22.557Z,1000.84
2017-07-12T04:38:23.854Z,1000.86
2017-07-12T04:39:25.102Z,1000.83
2017-07-12T04:40:26.339Z,1000.85
2017-07-12T04:41:27.615Z,1000.82
2017-07-12T04:42:28.849Z,1000.79
2017-07-12T04:43:30.119Z,1000.78
2017-07-12T04:44:31.342Z,1000.77
2017-07-12T04:45:32.590Z,1000.8
2017-07-12T04:46:33.844Z,1000.74
2017-07-12T04:47:35.090Z,1000.77
2017-07-12T04:48:36.336Z,1000.74
2017-07-12T04:49:37.643Z,1000.73
2017-07-12T04:50:38.895Z,1000.72
2017-07-12T04:51:40.164Z,1000.71
2017-07-12T04:52:41.409Z,1000.7
2017-07-12T04:53:42.759Z,1000.69
2017-07-12T04:54:44.089Z,1000.72
2017-07-12T04:55:45.336Z,1000.69
2017-07-12T04:56:46.585Z,1000.69
2017-07-12T04:57:47.833Z,1000.72
2017-07-12T04:58:49.092Z,1000.7
2017-07-12T04:59:50.413Z,1000.66
2017-07-12T05:00:51.664Z,1000.69
2017-07-12T05:01:52.911Z,1000.67
2017-07-12T05:02:54.158Z,1000.68
2017-07-12T05:03:55.402Z,1000.65
2017-07-12T05:04:56.672Z,1000.63
2017-07-12T05:05:57.937Z,1000.61
2017-07-12T05:06:59.162Z,1000.59
2017-07-12T05:08:00.465Z,1000.55
2017-07-12T05:09:01.705Z,1000.5
2017-07-12T05:10:02.977Z,1000.51
2017-07-12T05:11:04.238Z,1000.52
2017-07-12T05:12:05.475Z,1000.52
2017-07-12T05:13:06.836Z,1000.5
2017-07-12T05:14:08.099Z,1000.52
2017-07-12T05:15:09.393Z,1000.5
2017-07-12T05:16:10.617Z,1000.52
2017-07-12T05:17:11.856Z,1000.49
2017-07-12T05:18:13.265Z,1000.45
2017-07-12T05:19:14.684Z,1000.5
2017-07-12T05:20:15.948Z,1000.45
2017-07-12T05:21:17.180Z,1000.43
2017-07-12T05:22:18.430Z,1000.38
2017-07-12T05:23:19.693Z,1000.36
2017-07-12T05:24:20.960Z,1000.36
2017-07-12T05:25:22.260Z,1000.31
2017-07-12T05:26:23.544Z,1000.25
2017-07-12T05:27:24.775Z,1000.3
2017-07-12T05:28:26.035Z,1000.26
2017-07-12T05:29:27.296Z,1000.29
2017-07-12T05:30:28.661Z,1000.28
2017-07-12T05:31:29.940Z,1000.27
2017-07-12T05:32:31.186Z,1000.3
2017-07-12T05:33:32.427Z,1000.29
2017-07-12T05:34:33.673Z,1000.29
2017-07-12T05:35:34.928Z,1000.26
2017-07-12T05:36:36.230Z,1000.28
2017-07-12T05:37:37.551Z,1000.32
2017-07-12T05:38:38.800Z,1000.3
2017-07-12T05:39:40.058Z,1000.28
2017-07-12T05:40:41.307Z,1000.31
2017-07-12T05:41:42.561Z,1000.28
2017-07-12T05:42:43.964Z,1000.29
2017-07-12T05:43:45.237Z,1000.27
2017-07-12T05:44:46.513Z,1000.28
2017-07-12T05:45:47.801Z,1000.27
2017-07-12T05:46:49.066Z,1000.28
2017-07-12T05:47:50.514Z,1000.28
2017-07-12T05:48:51.768Z,1000.28
2017-07-12T05:49:53.024Z,1000.28
2017-07-12T05:50:54.262Z,1000.25
2017-07-12T05:51:55.516Z,1000.25
2017-07-12T05:52:56.773Z,1000.22
2017-07-12T05:53:58.065Z,1000.21
2017-07-12T05:54:59.278Z,1000.2
2017-07-12T05:56:00.539Z,1000.14
2017-07-12T05:57:01.821Z,1000.17
2017-07-12T05:58:03.080Z,1000.17
2017-07-12T05:59:04.334Z,1000.15
2017-07-12T06:00:05.574Z,1000.11
2017-07-12T06:01:06.875Z,1000.13
2017-07-12T06:02:08.121Z,1000.1
2017-07-12T06:03:09.366Z,1000.09
2017-07-12T06:04:10.604Z,1000.12
2017-07-12T06:05:11.857Z,1000.11
2017-07-12T06:06:13.316Z,1000.09
2017-07-12T06:07:14.531Z,1000.08
2017-07-12T06:08:15.758Z,1000.04
2017-07-12T06:09:17.008Z,1000.08
2017-07-12T06:10:18.257Z,1000.07
2017-07-12T06:11:19.505Z,1000.04
2017-07-12T06:12:20.761Z,999.96
2017-07-12T06:13:22.085Z,999.97
2017-07-12T06:14:23.388Z,999.94
2017-07-12T06:15:24.581Z,999.93
2017-07-12T06:16:25.827Z,999.93
2017-07-12T06:17:27.074Z,999.96
2017-07-12T06:18:28.342Z,999.91
2017-07-12T06:19:29.760Z,999.94
2017-07-12T06:20:30.908Z,999.88
2017-07-12T06:21:32.212Z,999.87
2017-07-12T06:22:33.442Z,999.85
2017-07-12T06:23:34.698Z,999.87
2017-07-12T06:24:36.015Z,999.88
2017-07-12T06:25:37.201Z,999.88
2017-07-12T06:26:38.528Z,999.88
2017-07-12T06:27:39.773Z,999.84
2017-07-12T06:28:41.026Z,999.88
2017-07-12T06:29:42.295Z,999.84
2017-07-12T06:30:43.555Z,999.87
2017-07-12T06:31:44.803Z,999.85
2017-07-12T06:32:46.172Z,999.87
2017-07-12T06:33:47.422Z,999.84
2017-07-12T06:34:48.670Z,999.85
2017-07-12T06:35:49.940Z,999.85
2017-07-12T06:36:51.175Z,999.81
2017-07-12T06:37:52.538Z,999.78
2017-07-12T06:38:53.795Z,999.74
2017-07-12T06:39:55.046Z,999.75
2017-07-12T06:40:56.292Z,999.75
2017-07-12T06:41:57.541Z,999.82
2017-07-12T06:42:58.808Z,999.79
2017-07-12T06:44:00.085Z,999.77
2017-07-12T06:45:01.347Z,999.76
2017-07-12T06:46:02.604Z,999.75
2017-07-12T06:47:03.903Z,999.75
2017-07-12T06:48:05.163Z,999.73
2017-07-12T06:49:06.415Z,999.72
2017-07-12T06:50:07.646Z,999.76
2017-07-12T06:51:08.902Z,999.73
2017-07-12T06:52:10.172Z,999.75
2017-07-12T06:53:11.428Z,999.77
2017-07-12T06:54:12.674Z,999.68
2017-07-12T06:55:13.911Z,999.67
2017-07-12T06:56:15.242Z,999.68
2017-07-12T06:57:16.507Z,999.66
2017-07-12T06:58:17.917Z,999.66
2017-07-12T06:59:19.140Z,999.69
2017-07-12T07:00:20.383Z,999.72
2017-07-12T07:01:21.642Z,999.69
2017-07-12T07:02:22.873Z,999.69
2017-07-12T07:03:24.145Z,999.68
2017-07-12T07:04:25.406Z,999.67
2017-07-12T07:05:26.652Z,999.61
2017-07-12T07:06:27.941Z,999.63
2017-07-12T07:07:29.202Z,999.56
2017-07-12T07:08:30.463Z,999.55
2017-07-12T07:09:31.776Z,999.57
2017-07-12T07:10:32.969Z,999.58
2017-07-12T07:11:34.220Z,999.53
2017-07-12T07:12:35.466Z,999.55
2017-07-12T07:13:36.754Z,999.5
2017-07-12T07:14:38.025Z,999.47
2017-07-12T07:15:39.266Z,999.47
2017-07-12T07:16:40.601Z,999.4
2017-07-12T07:17:41.824Z,999.41
2017-07-12T07:18:43.072Z,999.43
2017-07-12T07:19:44.306Z,999.39
2017-07-12T07:20:45.561Z,999.34
2017-07-12T07:21:46.832Z,999.34
2017-07-12T07:22:48.184Z,999.35
2017-07-12T07:23:49.437Z,999.3
2017-07-12T07:24:50.689Z,999.28
2017-07-12T07:25:51.930Z,999.28
2017-07-12T07:26:53.193Z,999.25
2017-07-12T07:27:54.534Z,999.27
2017-07-12T07:28:55.903Z,999.25
2017-07-12T07:29:57.148Z,999.27
2017-07-12T07:30:58.403Z,999.23
2017-07-12T07:31:59.642Z,999.25
2017-07-12T07:33:00.888Z,999.24
2017-07-12T07:34:02.180Z,999.22
2017-07-12T07:35:03.494Z,999.19
2017-07-12T07:36:04.764Z,999.18
2017-07-12T07:37:06.001Z,999.2
2017-07-12T07:38:07.248Z,999.18
2017-07-12T07:39:08.495Z,999.18
2017-07-12T07:40:09.843Z,999.15
2017-07-12T07:41:11.057Z,999.09
2017-07-12T07:42:12.371Z,999.1
2017-07-12T07:43:13.621Z,999.11
2017-07-12T07:44:14.977Z,999.08
2017-07-12T07:45:16.226Z,999.07
2017-07-12T07:46:17.443Z,999.03
2017-07-12T07:47:18.724Z,999.03
2017-07-12T07:48:20.193Z,999.05
2017-07-12T07:49:21.439Z,999.05
2017-07-12T07:50:22.702Z,999.03
2017-07-12T07:51:23.964Z,999
2017-07-12T07:52:25.203Z,999.03
2017-07-12T07:53:26.505Z,999.01
2017-07-12T07:54:27.765Z,999
2017-07-12T07:55:29.018Z,998.99
2017-07-12T07:56:30.287Z,998.98
2017-07-12T07:57:31.544Z,998.99
2017-07-12T07:58:32.903Z,998.97
2017-07-12T07:59:34.173Z,998.96
2017-07-12T08:00:35.454Z,998.96
2017-07-12T08:01:36.656Z,998.96
2017-07-12T08:02:37.944Z,998.99
2017-07-12T08:03:39.171Z,998.98
2017-07-12T08:04:40.417Z,998.97
2017-07-12T08:05:41.660Z,998.96
2017-07-12T08:06:42.909Z,998.93
2017-07-12T08:07:44.148Z,998.94
2017-07-12T08:08:45.420Z,998.9
2017-07-12T08:09:46.688Z,998.92
2017-07-12T08:10:47.965Z,998.95
2017-07-12T08:11:49.227Z,998.9
2017-07-12T08:12:50.504Z,998.94
2017-07-12T08:13:51.762Z,998.89
2017-07-12T08:14:53.018Z,998.89
2017-07-12T08:15:54.394Z,998.94
2017-07-12T08:16:55.712Z,998.93
2017-07-12T08:17:56.943Z,998.95
2017-07-12T08:18:58.256Z,998.94
2017-07-12T08:19:59.519Z,998.97
2017-07-12T08:21:00.787Z,998.91
2017-07-12T08:22:02.054Z,998.92
2017-07-12T08:23:03.282Z,998.94
2017-07-12T08:24:04.605Z,998.95
2017-07-12T08:25:06.010Z,998.91
2017-07-12T08:26:07.255Z,998.95
2017-07-12T08:27:08.500Z,998.96
2017-07-12T08:28:09.741Z,998.92
2017-07-12T08:29:10.990Z,998.94
2017-07-12T08:30:12.245Z,998.97
2017-07-12T08:31:13.514Z,998.98
2017-07-12T08:32:14.831Z,998.98
2017-07-12T08:33:16.018Z,998.97
2017-07-12T08:34:17.261Z,998.95
2017-07-12T08:35:18.506Z,998.97
2017-07-12T08:36:19.763Z,998.97
2017-07-12T08:37:21.002Z,998.97
2017-07-12T08:38:22.242Z,998.97
2017-07-12T08:39:23.484Z,999.01
2017-07-12T08:40:24.766Z,999.01
2017-07-12T08:41:26.134Z,999.02
2017-07-12T08:42:27.404Z,999.01
2017-07-12T08:43:28.652Z,998.97
2017-07-12T08:44:29.904Z,999
2017-07-12T08:45:31.157Z,998.97
2017-07-12T08:46:32.405Z,998.94
2017-07-12T08:47:33.643Z,998.92
2017-07-12T08:48:34.896Z,998.89
2017-07-12T08:49:36.160Z,998.84
2017-07-12T08:50:37.420Z,998.85
2017-07-12T08:51:38.637Z,998.84
2017-07-12T08:52:39.892Z,998.81
2017-07-12T08:53:41.160Z,998.77
2017-07-12T08:54:42.400Z,998.76
2017-07-12T08:55:43.681Z,998.71
2017-07-12T08:56:44.919Z,998.7
2017-07-12T08:57:46.165Z,998.68
2017-07-12T08:58:47.412Z,998.69
2017-07-12T08:59:48.653Z,998.68
2017-07-12T09:00:49.964Z,998.64
2017-07-12T09:01:51.229Z,998.64
2017-07-12T09:02:52.448Z,998.6
2017-07-12T09:03:53.698Z,998.59
2017-07-12T09:04:54.974Z,998.55
2017-07-12T09:05:56.240Z,998.59
2017-07-12T09:06:57.487Z,998.57
2017-07-12T09:07:58.766Z,998.61
2017-07-12T09:09:00.003Z,998.58
2017-07-12T09:10:01.246Z,998.58
2017-07-12T09:11:02.527Z,998.61
2017-07-12T09:12:03.764Z,998.56
2017-07-12T09:13:05.133Z,998.57
2017-07-12T09:14:06.442Z,998.56
2017-07-12T09:15:07.717Z,998.48
2017-07-12T09:16:08.960Z,998.5
2017-07-12T09:17:10.227Z,998.51
2017-07-12T09:18:11.445Z,998.5
2017-07-12T09:19:12.793Z,998.54
2017-07-12T09:20:14.057Z,998.54
2017-07-12T09:21:15.285Z,998.55
2017-07-12T09:22:16.533Z,998.58
2017-07-12T09:23:17.800Z,998.63
2017-07-12T09:33:30.921Z,998.47
2017-07-12T09:34:32.176Z,998.46
2017-07-12T09:35:33.424Z,998.52
2017-07-12T09:36:34.878Z,998.49
2017-07-12T09:37:36.149Z,998.54
2017-07-12T09:38:37.407Z,998.54
2017-07-12T09:39:38.661Z,998.56
2017-07-12T09:40:39.900Z,998.56
2017-07-12T09:41:41.164Z,998.6
2017-07-12T09:42:42.475Z,998.6
2017-07-12T09:43:43.696Z,998.62
2017-07-12T09:44:44.955Z,998.61
2017-07-12T09:45:46.194Z,998.59
2017-07-12T09:46:47.439Z,998.55
2017-07-12T09:47:48.690Z,998.51
2017-07-12T09:48:49.951Z,998.5
2017-07-12T09:49:51.218Z,998.48
2017-07-12T09:50:52.475Z,998.49
2017-07-12T09:51:53.716Z,998.57
2017-07-12T09:52:54.967Z,998.57
2017-07-12T09:53:56.240Z,998.6
2017-07-12T09:54:57.465Z,998.61
2017-07-12T09:55:58.714Z,998.6
2017-07-12T09:57:00.013Z,998.64
2017-07-12T09:58:01.217Z,998.65
2017-07-12T09:59:02.471Z,998.64
2017-07-12T10:00:03.759Z,998.63
2017-07-12T10:01:05.083Z,998.64
2017-07-12T10:02:06.406Z,998.66
2017-07-12T10:03:07.652Z,998.61
2017-07-12T10:04:08.904Z,998.66
2017-07-12T10:05:10.157Z,998.66
2017-07-12T10:06:11.397Z,998.64
2017-07-12T10:07:12.711Z,998.7
2017-07-12T10:08:13.990Z,998.7
2017-07-12T10:09:15.217Z,998.72
2017-07-12T10:10:16.493Z,998.73
2017-07-12T10:11:17.720Z,998.73
2017-07-12T10:12:19.048Z,998.71
2017-07-12T10:13:20.297Z,998.73
2017-07-12T10:14:21.562Z,998.74
2017-07-12T10:15:22.795Z,998.64
2017-07-12T10:16:24.063Z,998.63
2017-07-12T10:17:25.313Z,998.62
2017-07-12T10:18:26.567Z,998.63
2017-07-12T10:19:27.808Z,998.59
2017-07-12T10:20:29.121Z,998.56
2017-07-12T10:21:30.394Z,998.58
2017-07-12T10:22:31.642Z,998.61
2017-07-12T10:23:32.892Z,998.6
2017-07-12T10:24:34.139Z,998.57
2017-07-12T10:25:35.408Z,998.59
2017-07-12T10:26:36.647Z,998.61
2017-07-12T10:27:37.980Z,998.5
2017-07-12T10:28:39.185Z,998.55
2017-07-12T10:29:40.457Z,998.53
2017-07-12T10:30:41.706Z,998.5
2017-07-12T10:31:42.962Z,998.47
2017-07-12T10:32:44.227Z,998.46
2017-07-12T10:33:45.606Z,998.5
2017-07-12T10:34:46.785Z,998.47
2017-07-12T10:35:48.042Z,998.46
2017-07-12T10:36:49.297Z,998.45
2017-07-12T10:37:50.547Z,998.43
2017-07-12T10:38:51.892Z,998.41
2017-07-12T10:39:53.042Z,998.44
2017-07-12T10:40:54.264Z,998.4
2017-07-12T10:41:55.514Z,998.46
2017-07-12T10:42:56.777Z,998.46
2017-07-12T10:43:58.016Z,998.49
2017-07-12T10:44:59.295Z,998.48
2017-07-12T10:46:00.544Z,998.49
2017-07-12T10:47:01.800Z,998.51
2017-07-12T10:48:03.050Z,998.53
2017-07-12T10:49:04.316Z,998.53
2017-07-12T10:50:05.562Z,998.52
2017-07-12T10:51:06.797Z,998.56
2017-07-12T10:52:08.148Z,998.57
2017-07-12T10:53:09.446Z,998.58
2017-07-12T10:54:10.666Z,998.58
2017-07-12T10:55:11.928Z,998.6
2017-07-12T10:56:13.205Z,998.57
2017-07-12T10:57:14.450Z,998.56
2017-07-12T10:58:15.721Z,998.58
2017-07-12T10:59:16.971Z,998.57
2017-07-12T11:00:18.210Z,998.61
2017-07-12T11:01:19.467Z,998.58
2017-07-12T11:02:20.735Z,998.53
2017-07-12T11:03:21.957Z,998.57
2017-07-12T11:04:23.206Z,998.56
2017-07-12T11:05:24.465Z,998.57
2017-07-12T11:06:25.705Z,998.57
2017-07-12T11:07:26.956Z,998.61
2017-07-12T11:08:28.207Z,998.61
2017-07-12T11:09:29.438Z,998.61
2017-07-12T11:10:30.691Z,998.63
2017-07-12T11:11:31.990Z,998.61
2017-07-12T11:12:33.228Z,998.57
2017-07-12T11:13:34.504Z,998.61
2017-07-12T11:14:35.782Z,998.61
2017-07-12T11:15:37.056Z,998.6
2017-07-12T11:16:38.311Z,998.61
2017-07-12T11:17:39.524Z,998.61
2017-07-12T11:18:40.783Z,998.63
2017-07-12T11:19:42.064Z,998.7
2017-07-12T11:20:43.337Z,998.74
2017-07-12T11:21:44.595Z,998.79
2017-07-12T11:22:45.830Z,998.81
2017-07-12T11:23:47.091Z,998.75
2017-07-12T11:24:48.455Z,998.75
2017-07-12T11:25:49.758Z,998.77
2017-07-12T11:26:51.006Z,998.76
2017-07-12T11:27:52.277Z,998.74
2017-07-12T11:28:53.544Z,998.79
2017-07-12T11:29:54.901Z,998.77
2017-07-12T11:30:56.158Z,998.79
2017-07-12T11:31:57.415Z,998.83
2017-07-12T11:32:58.654Z,998.82
2017-07-12T11:33:59.898Z,998.84
2017-07-12T11:35:01.199Z,998.85
2017-07-12T11:36:02.455Z,998.84
2017-07-12T11:37:03.947Z,998.85
2017-07-12T11:38:05.185Z,998.86
2017-07-12T11:39:06.434Z,998.83
2017-07-12T11:40:07.683Z,998.9
2017-07-12T11:41:09.022Z,998.92
2017-07-12T11:42:10.265Z,998.89
2017-07-12T11:43:11.508Z,998.93
2017-07-12T11:44:12.759Z,998.95
2017-07-12T11:45:14.012Z,998.98
2017-07-12T11:46:15.437Z,998.98
2017-07-12T11:47:16.758Z,999
2017-07-12T11:48:17.987Z,999.01
2017-07-12T11:49:19.232Z,998.99
2017-07-12T11:50:20.469Z,998.95
2017-07-12T11:51:21.716Z,998.96
2017-07-12T11:52:22.977Z,999.01
2017-07-12T11:53:24.252Z,999.02
2017-07-12T11:54:25.525Z,999.02
2017-07-12T11:55:26.759Z,999.05
2017-07-12T11:56:28.011Z,999.03
2017-07-12T11:57:29.258Z,999.04
2017-07-12T11:58:30.519Z,999.02
2017-07-12T11:59:31.767Z,999.03
2017-07-12T12:00:33.155Z,999.04
2017-07-12T12:01:34.412Z,999.05
2017-07-12T12:02:35.661Z,999.01
2017-07-12T12:03:36.945Z,999.03
2017-07-12T12:04:38.194Z,999.1
2017-07-12T12:05:39.423Z,999.03
2017-07-12T12:06:40.878Z,999.05
2017-07-12T12:07:42.205Z,999.02
2017-07-12T12:08:43.451Z,999.08
2017-07-12T12:09:44.703Z,999.05
2017-07-12T12:10:46.005Z,999.02
2017-07-12T12:11:47.306Z,999.08
2017-07-12T12:12:48.724Z,999.09
2017-07-12T12:13:49.953Z,999.09
2017-07-12T12:14:51.215Z,999.09
2017-07-12T12:15:52.453Z,999.08
2017-07-12T12:16:53.729Z,999.1
2017-07-12T12:17:55.204Z,999.17
2017-07-12T12:18:56.498Z,999.08
2017-07-12T12:19:57.748Z,999.12
2017-07-12T12:20:58.970Z,999.17
2017-07-12T12:22:00.299Z,999.16
2017-07-12T12:23:01.542Z,999.17
2017-07-12T12:24:02.915Z,999.15
2017-07-12T12:25:04.174Z,999.19
2017-07-12T12:26:05.417Z,999.2
2017-07-12T12:27:06.670Z,999.19
2017-07-12T12:28:07.954Z,999.18
2017-07-12T12:29:09.200Z,999.28
2017-07-12T12:30:10.541Z,999.26
2017-07-12T12:31:11.842Z,999.23
2017-07-12T12:32:13.091Z,999.3
2017-07-12T12:33:14.378Z,999.31
2017-07-12T12:34:15.607Z,999.31
2017-07-12T12:35:16.877Z,999.32
2017-07-12T12:36:18.137Z,999.34
2017-07-12T12:37:19.396Z,999.43
2017-07-12T12:38:20.644Z,999.41
2017-07-12T12:39:21.898Z,999.46
2017-07-12T12:40:23.162Z,999.51
2017-07-12T12:41:24.436Z,999.52
2017-07-12T12:42:25.690Z,999.57
2017-07-12T12:43:26.930Z,999.6
2017-07-12T12:44:28.222Z,999.59